createdAt,value
2022-09-12T00:00:49.247Z,10.60
2022-09-12T00:03:17.732Z,9.80
2022-09-12T00:05:46.341Z,8.63
2022-09-12T00:08:16.873Z,9.68
2022-09-12T00:10:45.468Z,10.18
2022-09-12T00:13:13.318Z,10.13
2022-09-12T00:15:41.624Z,9.38
2022-09-12T00:18:13.168Z,9.63
2022-09-12T00:20:42.630Z,10.35
2022-09-12T00:23:10.781Z,11.20
2022-09-12T00:25:42.153Z,10.10
2022-09-12T00:28:09.984Z,11.27
2022-09-12T00:30:41.115Z,10.43
2022-09-12T00:33:09.039Z,9.18
2022-09-12T00:35:43.302Z,10.18
2022-09-12T00:38:11.215Z,10.90
2022-09-12T00:40:38.980Z,11.13
2022-09-12T00:43:06.772Z,11.68
2022-09-12T00:45:34.840Z,10.40
2022-09-12T00:48:04.611Z,10.52
2022-09-12T00:50:32.885Z,9.85
2022-09-12T00:53:04.263Z,10.45
2022-09-12T00:55:34.713Z,10.35
2022-09-12T00:58:05.275Z,10.13
2022-09-12T01:00:33.762Z,11.55
2022-09-12T01:03:02.926Z,11.30
2022-09-12T01:05:32.291Z,10.57
2022-09-12T01:08:01.961Z,10.48
2022-09-12T01:10:31.404Z,10.38
2022-09-12T01:12:59.545Z,10.07
2022-09-12T01:15:27.370Z,10.50
2022-09-12T01:18:01.587Z,11.00
2022-09-12T01:20:57.984Z,11.30
2022-09-12T01:23:43.737Z,11.07
2022-09-12T01:26:24.613Z,10.60
2022-09-12T01:29:02.403Z,10.90
2022-09-12T01:31:34.824Z,10.05
2022-09-12T01:34:08.818Z,10.40
2022-09-12T01:36:42.959Z,10.38
2022-09-12T01:39:15.297Z,11.50
2022-09-12T01:41:49.940Z,10.77
2022-09-12T01:44:22.971Z,10.57
2022-09-12T01:49:22.720Z,9.65
2022-09-12T01:51:55.170Z,12.47
2022-09-12T01:54:26.355Z,10.77
2022-09-12T01:56:56.291Z,10.93
2022-09-12T01:59:26.906Z,9.82
2022-09-12T02:01:57.342Z,9.80
2022-09-12T02:04:33.515Z,10.23
2022-09-12T02:07:04.148Z,9.43
2022-09-12T02:09:36.518Z,10.63
2022-09-12T02:12:05.902Z,10.65
2022-09-12T02:14:37.644Z,10.00
2022-09-12T02:17:08.754Z,10.05
2022-09-12T02:19:40.376Z,9.98
2022-09-12T02:22:09.889Z,9.88
2022-09-12T02:24:39.388Z,9.70
2022-09-12T02:27:08.842Z,10.07
2022-09-12T02:29:37.155Z,9.65
2022-09-12T02:32:06.877Z,10.23
2022-09-12T02:34:42.811Z,9.73
2022-09-12T02:37:17.549Z,10.20
2022-09-12T02:39:45.705Z,9.45
2022-09-12T02:42:13.841Z,8.57
2022-09-12T02:48:13.458Z,9.45
2022-09-12T02:50:42.999Z,10.10
2022-09-12T02:53:11.424Z,10.18
2022-09-12T02:55:40.382Z,9.77
2022-09-12T02:58:09.775Z,10.35
2022-09-12T03:00:40.110Z,10.15
2022-09-12T03:03:17.716Z,8.88
2022-09-12T03:05:52.039Z,8.30
2022-09-12T03:08:30.174Z,7.65
2022-09-12T03:11:11.136Z,8.85
2022-09-12T03:13:44.452Z,9.00
2022-09-12T03:16:17.158Z,6.63
2022-09-12T03:18:51.530Z,6.70
2022-09-12T03:21:24.117Z,6.30
2022-09-12T03:23:59.312Z,6.65
2022-09-12T03:26:31.470Z,6.05
2022-09-12T03:28:59.925Z,9.73
2022-09-12T03:31:27.876Z,11.30
2022-09-12T03:33:55.718Z,10.52
2022-09-12T03:36:26.213Z,8.25
2022-09-12T03:38:54.248Z,8.75
2022-09-12T03:41:22.461Z,8.30
2022-09-12T03:43:50.650Z,8.27
2022-09-12T03:46:18.655Z,8.55
2022-09-12T03:48:46.614Z,8.52
2022-09-12T03:51:14.504Z,8.35
2022-09-12T03:53:43.814Z,10.88
2022-09-12T03:56:12.675Z,10.00
2022-09-12T03:58:40.891Z,7.95
2022-09-12T04:01:12.303Z,8.05
2022-09-12T04:03:40.941Z,7.53
2022-09-12T04:06:09.221Z,8.52
2022-09-12T04:08:37.525Z,9.40
2022-09-12T04:11:07.363Z,9.25
2022-09-12T04:13:35.503Z,8.35
2022-09-12T04:16:03.847Z,8.63
2022-09-12T04:18:32.110Z,9.95
2022-09-12T04:21:00.020Z,8.65
2022-09-12T04:23:27.767Z,8.80
2022-09-12T04:25:56.147Z,7.00
2022-09-12T04:28:25.363Z,8.52
2022-09-12T04:30:53.154Z,9.32
2022-09-12T04:33:21.755Z,8.88
2022-09-12T04:35:50.334Z,8.50
2022-09-12T04:38:18.158Z,9.77
2022-09-12T04:40:45.918Z,8.85
2022-09-12T04:43:14.626Z,9.07
2022-09-12T04:45:43.904Z,9.18
2022-09-12T04:48:11.687Z,9.23
2022-09-12T04:50:39.463Z,9.00
2022-09-12T04:53:07.225Z,8.80
2022-09-12T04:55:35.138Z,9.27
2022-09-12T04:58:03.345Z,9.40
2022-09-12T05:00:31.165Z,8.77
2022-09-12T05:03:00.510Z,9.02
2022-09-12T05:05:28.266Z,9.13
2022-09-12T05:07:56.093Z,9.98
2022-09-12T05:10:24.316Z,8.85
2022-09-12T05:12:52.661Z,10.25
2022-09-12T05:15:20.564Z,8.80
2022-09-12T05:17:50.014Z,10.98
2022-09-12T05:20:19.594Z,11.35
2022-09-12T05:22:50.117Z,11.15
2022-09-12T05:25:17.849Z,11.18
2022-09-12T05:27:50.380Z,9.65
2022-09-12T05:30:18.446Z,10.55
2022-09-12T05:32:46.487Z,11.10
2022-09-12T05:35:14.447Z,10.10
2022-09-12T05:37:46.896Z,10.70
2022-09-12T05:40:17.767Z,10.20
2022-09-12T05:42:48.740Z,10.25
2022-09-12T05:45:16.791Z,10.90
2022-09-12T05:47:47.237Z,9.93
2022-09-12T05:50:15.267Z,10.90
2022-09-12T05:52:43.034Z,10.82
2022-09-12T05:55:12.302Z,10.65
2022-09-12T05:57:40.567Z,9.93
2022-09-12T06:00:09.828Z,9.25
2022-09-12T06:02:37.606Z,10.77
2022-09-12T06:05:05.754Z,9.93
2022-09-12T06:07:36.211Z,10.88
2022-09-12T06:10:05.518Z,10.68
2022-09-12T06:12:36.133Z,11.90
2022-09-12T06:15:04.086Z,9.98
2022-09-12T06:17:32.312Z,10.82
2022-09-12T06:20:00.272Z,11.18
2022-09-12T06:22:28.046Z,12.25
2022-09-12T06:24:57.977Z,9.55
2022-09-12T06:27:25.947Z,11.35
2022-09-12T06:29:55.027Z,11.48
2022-09-12T06:32:22.741Z,11.57
2022-09-12T06:34:50.880Z,11.52
2022-09-12T06:37:18.599Z,11.50
2022-09-12T06:39:46.962Z,10.07
2022-09-12T06:42:15.308Z,9.95
2022-09-12T06:44:43.141Z,10.65
2022-09-12T06:47:12.910Z,11.10
2022-09-12T06:49:40.954Z,11.27
2022-09-12T06:52:09.201Z,10.68
2022-09-12T06:54:37.185Z,9.88
2022-09-12T06:57:05.040Z,9.32
2022-09-12T06:59:32.732Z,8.43
2022-09-12T07:02:01.590Z,8.55
2022-09-12T07:04:33.325Z,8.30
2022-09-12T07:07:15.580Z,8.05
2022-09-12T07:09:43.410Z,9.30
2022-09-12T07:12:11.159Z,8.90
2022-09-12T07:14:38.890Z,8.63
2022-09-12T07:17:08.858Z,8.23
2022-09-12T07:19:37.946Z,9.07
2022-09-12T07:22:05.691Z,9.57
2022-09-12T07:24:33.565Z,9.35
2022-09-12T07:27:01.340Z,8.63
2022-09-12T07:29:37.622Z,9.57
2022-09-12T07:32:06.578Z,9.15
2022-09-12T07:34:34.831Z,9.48
2022-09-12T07:37:03.967Z,9.40
2022-09-12T07:39:32.524Z,9.52
2022-09-12T07:42:01.053Z,9.18
2022-09-12T07:44:32.377Z,10.50
2022-09-12T07:47:00.430Z,9.32
2022-09-12T07:49:28.211Z,9.20
2022-09-12T07:51:55.956Z,8.77
2022-09-12T07:54:25.411Z,10.73
2022-09-12T07:56:53.163Z,10.23
2022-09-12T07:59:35.624Z,11.70
2022-09-12T08:02:16.597Z,10.43
2022-09-12T08:04:45.297Z,11.77
2022-09-12T08:07:12.997Z,10.82
2022-09-12T08:09:42.055Z,11.70
2022-09-12T08:12:10.171Z,11.57
2022-09-12T08:14:37.906Z,10.70
2022-09-12T08:17:06.831Z,11.15
2022-09-12T08:19:34.812Z,11.95
2022-09-12T08:22:03.228Z,10.80
2022-09-12T08:24:32.182Z,11.40
2022-09-12T08:27:01.665Z,12.10
2022-09-12T08:29:29.435Z,13.98
2022-09-12T08:31:57.524Z,12.25
2022-09-12T08:34:26.393Z,11.60
2022-09-12T08:36:55.246Z,12.00
2022-09-12T08:39:23.205Z,11.85
2022-09-12T08:41:57.362Z,11.88
2022-09-12T08:44:31.236Z,11.48
2022-09-12T08:47:06.937Z,12.43
2022-09-12T08:49:35.867Z,13.20
2022-09-12T08:52:05.135Z,12.05
2022-09-12T08:54:33.829Z,11.50
2022-09-12T08:57:03.660Z,12.18
2022-09-12T08:59:36.605Z,11.77
2022-09-12T09:02:08.124Z,11.25
2022-09-12T09:04:45.232Z,11.02
2022-09-12T09:07:34.041Z,11.52
2022-09-12T09:10:09.756Z,9.98
2022-09-12T09:12:41.615Z,9.95
2022-09-12T09:15:22.301Z,10.77
2022-09-12T09:17:52.070Z,10.00
2022-09-12T09:20:23.640Z,9.77
2022-09-12T09:22:53.955Z,9.27
2022-09-12T09:25:23.163Z,9.07
2022-09-12T09:27:54.848Z,9.93
2022-09-12T09:30:23.922Z,9.05
2022-09-12T09:32:52.878Z,7.43
2022-09-12T09:35:23.847Z,7.93
2022-09-12T09:38:00.185Z,8.88
2022-09-12T09:40:31.141Z,8.00
2022-09-12T09:43:03.028Z,9.23
2022-09-12T09:45:32.244Z,8.35
2022-09-12T09:48:02.513Z,7.90
2022-09-12T09:50:30.489Z,7.57
2022-09-12T09:52:59.277Z,6.55
2022-09-12T09:55:31.675Z,8.05
2022-09-12T09:57:59.686Z,7.00
2022-09-12T10:00:28.938Z,7.25
2022-09-12T10:03:15.452Z,6.80
2022-09-12T10:05:47.985Z,7.25
2022-09-12T10:08:21.555Z,5.57
2022-09-12T10:10:56.287Z,4.68
2022-09-12T10:13:26.129Z,4.45
2022-09-12T10:15:57.442Z,3.45
2022-09-12T10:18:34.169Z,3.70
2022-09-12T10:21:03.607Z,3.92
2022-09-12T10:23:35.282Z,3.30
2022-09-12T10:26:05.617Z,3.65
2022-09-12T10:28:35.790Z,3.08
2022-09-12T10:31:04.025Z,4.15
2022-09-12T10:33:32.746Z,3.83
2022-09-12T10:36:00.990Z,3.10
2022-09-12T10:38:32.391Z,3.20
2022-09-12T10:41:01.357Z,3.28
2022-09-12T10:43:30.969Z,3.13
2022-09-12T10:49:29.027Z,3.05
2022-09-12T10:51:59.516Z,2.92
2022-09-12T10:54:29.558Z,3.60
2022-09-12T10:57:12.370Z,2.50
2022-09-12T10:59:50.476Z,2.88
2022-09-12T11:02:28.062Z,3.17
2022-09-12T11:05:01.322Z,3.15
2022-09-12T11:07:34.465Z,2.20
2022-09-12T11:10:06.793Z,1.80
2022-09-12T11:12:39.621Z,2.45
2022-09-12T11:15:13.794Z,2.42
2022-09-12T11:17:46.237Z,2.40
2022-09-12T11:20:20.264Z,2.45
2022-09-12T11:23:03.477Z,2.50
2022-09-12T11:28:12.873Z,2.20
2022-09-12T11:30:44.558Z,2.40
2022-09-12T11:33:23.114Z,2.78
2022-09-12T11:35:55.292Z,2.55
2022-09-12T11:41:18.356Z,2.63
2022-09-12T11:43:49.765Z,2.33
2022-09-12T11:46:20.624Z,1.80
2022-09-12T11:48:52.238Z,2.30
2022-09-12T11:51:20.953Z,1.92
2022-09-12T11:53:55.407Z,2.15
2022-09-12T11:56:23.137Z,1.95
2022-09-12T11:58:54.019Z,2.10
2022-09-12T12:01:23.992Z,1.90
2022-09-12T12:03:52.719Z,1.60
2022-09-12T12:06:22.527Z,1.48
2022-09-12T12:08:51.411Z,1.40
2022-09-12T12:11:28.128Z,1.40
2022-09-12T12:13:58.841Z,1.13
2022-09-12T12:16:28.165Z,1.00
2022-09-12T12:18:56.887Z,1.55
2022-09-12T12:21:35.171Z,1.23
2022-09-12T12:24:04.819Z,0.80
2022-09-12T12:26:44.069Z,0.50
2022-09-12T12:29:13.904Z,0.60
2022-09-12T12:31:56.749Z,1.10
2022-09-12T12:34:28.481Z,1.00
2022-09-12T12:36:56.268Z,0.90
2022-09-12T12:39:51.241Z,1.58
2022-09-12T12:42:37.988Z,1.27
2022-09-12T12:45:30.662Z,2.72
2022-09-12T12:48:03.121Z,1.88
2022-09-12T12:50:33.021Z,1.60
2022-09-12T12:53:01.959Z,1.35
2022-09-12T12:55:34.376Z,1.48
2022-09-12T12:58:02.883Z,1.85
2022-09-12T13:00:33.741Z,1.23
2022-09-12T13:03:03.365Z,1.20
2022-09-12T13:05:38.865Z,1.30
2022-09-12T13:08:10.275Z,1.45
2022-09-12T13:10:38.733Z,1.35
2022-09-12T13:13:08.590Z,1.65
2022-09-12T13:15:50.014Z,1.60
2022-09-12T13:18:20.290Z,1.70
2022-09-12T13:20:49.693Z,1.50
2022-09-12T13:23:24.180Z,1.63
2022-09-12T13:25:55.879Z,1.77
2022-09-12T13:28:23.982Z,1.30
2022-09-12T13:30:58.597Z,1.80
2022-09-12T13:33:30.996Z,1.20
2022-09-12T13:36:05.525Z,1.40
2022-09-12T13:38:38.564Z,1.50
2022-09-12T13:41:18.385Z,1.30
2022-09-12T13:43:47.730Z,1.92
2022-09-12T13:46:19.670Z,1.60
2022-09-12T13:48:47.655Z,1.80
2022-09-12T13:51:21.924Z,1.77
2022-09-12T13:53:50.669Z,1.38
2022-09-12T13:56:18.961Z,1.67
2022-09-12T13:58:54.715Z,1.45
2022-09-12T14:01:24.624Z,1.35
2022-09-12T14:04:10.916Z,1.42
2022-09-12T14:06:49.814Z,1.48
2022-09-12T14:09:25.152Z,1.48
2022-09-12T14:11:53.772Z,1.50
2022-09-12T14:14:27.896Z,1.23
2022-09-12T14:16:56.982Z,1.58
2022-09-12T14:19:26.008Z,1.40
2022-09-12T14:21:54.887Z,1.40
2022-09-12T14:24:24.325Z,1.38
2022-09-12T14:26:54.137Z,1.40
2022-09-12T14:29:26.492Z,0.90
2022-09-12T14:32:05.770Z,1.05
2022-09-12T14:34:33.687Z,1.60
2022-09-12T14:37:06.990Z,1.38
2022-09-12T14:39:38.420Z,1.60
2022-09-12T14:42:07.518Z,1.35
2022-09-12T14:44:36.658Z,1.00
2022-09-12T14:47:14.218Z,1.10
2022-09-12T14:49:42.490Z,1.10
2022-09-12T14:52:22.533Z,1.05
2022-09-12T14:54:56.949Z,1.00
2022-09-12T14:57:39.583Z,0.90
2022-09-12T15:00:16.022Z,0.88
2022-09-12T15:02:45.456Z,0.77
2022-09-12T15:05:17.940Z,0.80
2022-09-12T15:07:48.053Z,1.15
2022-09-12T15:10:18.647Z,0.90
2022-09-12T15:12:46.430Z,1.00
2022-09-12T15:15:15.835Z,1.23
2022-09-12T15:17:44.890Z,1.05
2022-09-12T15:20:13.449Z,1.50
2022-09-12T15:22:41.239Z,1.00
2022-09-12T15:25:11.178Z,1.20
2022-09-12T15:27:41.020Z,0.95
2022-09-12T15:30:10.189Z,0.77
2022-09-12T15:32:38.063Z,1.00
2022-09-12T15:35:13.546Z,0.90
2022-09-12T15:37:41.298Z,1.23
2022-09-12T15:40:10.301Z,0.75
2022-09-12T15:42:38.228Z,0.95
2022-09-12T15:45:12.037Z,0.70
2022-09-12T15:47:39.800Z,0.75
2022-09-12T15:50:10.997Z,1.00
2022-09-12T15:52:39.305Z,1.15
2022-09-12T15:55:15.575Z,0.68
2022-09-12T15:57:43.350Z,1.10
2022-09-12T16:00:11.564Z,1.10
2022-09-12T16:02:39.347Z,0.98
2022-09-12T16:05:07.683Z,1.10
2022-09-12T16:07:36.754Z,1.60
2022-09-12T16:10:05.120Z,1.05
2022-09-12T16:12:32.838Z,0.88
2022-09-12T16:15:01.086Z,1.25
2022-09-12T16:17:28.810Z,1.23
2022-09-12T16:19:56.663Z,1.10
2022-09-12T16:22:24.476Z,1.00
2022-09-12T16:24:53.597Z,0.85
2022-09-12T16:27:21.542Z,1.05
2022-09-12T16:29:49.407Z,0.85
2022-09-12T16:32:17.531Z,0.70
2022-09-12T16:34:45.693Z,1.00
2022-09-12T16:37:14.771Z,1.00
2022-09-12T16:39:42.657Z,1.27
2022-09-12T16:42:12.093Z,1.10
2022-09-12T16:44:40.109Z,1.20
2022-09-12T16:47:07.957Z,0.75
2022-09-12T16:49:35.691Z,0.90
2022-09-12T16:52:03.643Z,1.20
2022-09-12T16:54:31.685Z,1.25
2022-09-12T16:56:59.534Z,1.02
2022-09-12T16:59:28.616Z,1.00
2022-09-12T17:01:56.386Z,1.00
2022-09-12T17:04:24.628Z,1.17
2022-09-12T17:06:52.327Z,1.00
2022-09-12T17:09:20.127Z,1.20
2022-09-12T17:11:49.657Z,1.13
2022-09-12T17:14:17.428Z,1.60
2022-09-12T17:16:51.687Z,1.42
2022-09-12T17:19:20.557Z,1.42
2022-09-12T17:21:48.824Z,1.15
2022-09-12T17:24:16.765Z,1.00
2022-09-12T17:26:44.767Z,1.23
2022-09-12T17:29:13.817Z,1.40
2022-09-12T17:31:41.934Z,1.60
2022-09-12T17:34:14.205Z,1.23
2022-09-12T17:36:44.176Z,1.17
2022-09-12T17:39:12.523Z,1.30
2022-09-12T17:41:42.823Z,1.30
2022-09-12T17:44:12.673Z,1.58
2022-09-12T17:46:40.692Z,1.15
2022-09-12T17:49:09.062Z,1.88
2022-09-12T17:51:38.375Z,1.20
2022-09-12T17:54:08.203Z,2.40
2022-09-12T17:56:37.063Z,1.73
2022-09-12T17:59:06.088Z,2.13
2022-09-12T18:01:51.359Z,1.25
2022-09-12T18:04:19.949Z,1.60
2022-09-12T18:06:49.205Z,1.52
2022-09-12T18:09:18.468Z,1.70
2022-09-12T18:11:46.694Z,2.55
2022-09-12T18:14:14.633Z,1.90
2022-09-12T18:16:43.147Z,2.13
2022-09-12T18:19:11.318Z,1.58
2022-09-12T18:21:39.281Z,2.17
2022-09-12T18:24:08.352Z,1.73
2022-09-12T18:26:36.088Z,1.83
2022-09-12T18:29:03.795Z,2.47
2022-09-12T18:31:31.806Z,1.98
2022-09-12T18:34:01.067Z,1.90
2022-09-12T18:36:32.226Z,2.42
2022-09-12T18:39:00.499Z,1.70
2022-09-12T18:41:29.978Z,1.83
2022-09-12T18:43:58.582Z,1.80
2022-09-12T18:46:26.906Z,1.60
2022-09-12T18:48:57.709Z,1.75
2022-09-12T18:51:27.396Z,2.10
2022-09-12T18:53:56.298Z,2.03
2022-09-12T18:56:24.636Z,1.90
2022-09-12T18:58:56.893Z,2.08
2022-09-12T19:01:25.542Z,2.03
2022-09-12T19:03:53.350Z,2.20
2022-09-12T19:06:21.870Z,5.00
2022-09-12T19:08:50.202Z,5.72
2022-09-12T19:11:18.217Z,4.50
2022-09-12T19:13:46.933Z,3.92
2022-09-12T19:16:17.365Z,3.28
2022-09-12T19:18:47.150Z,2.72
2022-09-12T19:21:15.772Z,2.78
2022-09-12T19:23:43.573Z,2.45
2022-09-12T19:26:11.974Z,2.00
2022-09-12T19:28:39.703Z,2.30
2022-09-12T19:31:08.285Z,2.22
2022-09-12T19:33:37.905Z,2.30
2022-09-12T19:36:17.484Z,2.00
2022-09-12T19:38:55.020Z,2.70
2022-09-12T19:41:22.825Z,2.22
2022-09-12T19:43:50.645Z,2.28
2022-09-12T19:46:19.302Z,2.25
2022-09-12T19:48:48.783Z,2.20
2022-09-12T19:51:17.573Z,2.35
2022-09-12T19:53:45.545Z,2.25
2022-09-12T19:56:14.210Z,2.38
2022-09-12T19:58:42.852Z,2.13
2022-09-12T20:01:11.716Z,2.20
2022-09-12T20:03:39.900Z,2.17
2022-09-12T20:06:10.288Z,1.50
2022-09-12T20:08:39.598Z,2.13
2022-09-12T20:11:07.479Z,2.33
2022-09-12T20:13:35.539Z,2.13
2022-09-12T20:16:07.231Z,2.08
2022-09-12T20:18:35.076Z,1.77
2022-09-12T20:21:10.713Z,2.33
2022-09-12T20:23:39.341Z,2.13
2022-09-12T20:26:07.606Z,2.10
2022-09-12T20:28:35.408Z,3.30
2022-09-12T20:31:03.807Z,2.20
2022-09-12T20:33:31.908Z,2.40
2022-09-12T20:36:07.116Z,2.25
2022-09-12T20:38:36.896Z,3.10
2022-09-12T20:41:05.484Z,2.35
2022-09-12T20:43:33.461Z,2.30
2022-09-12T20:46:05.409Z,2.30
2022-09-12T20:48:33.583Z,2.17
2022-09-12T20:51:01.373Z,2.20
2022-09-12T20:53:34.682Z,2.00
2022-09-12T20:56:05.309Z,2.10
2022-09-12T20:58:33.445Z,1.83
2022-09-12T21:01:01.400Z,1.60
2022-09-12T21:03:29.184Z,1.92
2022-09-12T21:05:57.135Z,2.10
2022-09-12T21:08:24.847Z,3.03
2022-09-12T21:10:52.572Z,2.05
2022-09-12T21:13:22.034Z,2.05
2022-09-12T21:15:49.771Z,2.50
2022-09-12T21:18:17.637Z,2.10
2022-09-12T21:20:51.810Z,2.05
2022-09-12T21:23:19.838Z,1.92
2022-09-12T21:25:52.466Z,2.17
2022-09-12T21:28:22.163Z,2.58
2022-09-12T21:30:50.559Z,2.25
2022-09-12T21:33:19.231Z,2.00
2022-09-12T21:35:47.060Z,2.20
2022-09-12T21:38:15.568Z,2.17
2022-09-12T21:40:43.630Z,1.98
2022-09-12T21:43:12.993Z,2.00
2022-09-12T21:45:42.352Z,1.80
2022-09-12T21:48:10.394Z,2.17
2022-09-12T21:50:38.180Z,2.53
2022-09-12T21:53:05.931Z,2.17
2022-09-12T21:55:33.638Z,2.63
2022-09-12T21:58:01.579Z,2.22
2022-09-12T22:00:29.314Z,2.20
2022-09-12T22:02:59.043Z,2.00
2022-09-12T22:05:31.767Z,2.28
2022-09-12T22:08:00.607Z,2.00
2022-09-12T22:10:28.756Z,2.40
2022-09-12T22:12:57.788Z,2.88
2022-09-12T22:15:41.431Z,1.80
2022-09-12T22:18:10.906Z,2.35
2022-09-12T22:20:38.554Z,2.08
2022-09-12T22:23:25.055Z,2.00
2022-09-12T22:25:54.345Z,2.42
2022-09-12T22:28:22.835Z,2.30
2022-09-12T22:30:50.694Z,2.50
2022-09-12T22:33:19.755Z,2.15
2022-09-12T22:35:47.785Z,2.38
2022-09-12T22:38:15.504Z,2.00
2022-09-12T22:40:43.392Z,2.10
2022-09-12T22:43:11.492Z,2.08
2022-09-12T22:45:41.329Z,2.55
2022-09-12T22:48:09.533Z,2.25
2022-09-12T22:50:38.701Z,2.25
2022-09-12T22:53:06.428Z,1.90
2022-09-12T22:55:34.391Z,2.35
2022-09-12T22:58:03.805Z,2.08
2022-09-12T23:00:32.007Z,2.75
2022-09-12T23:03:00.124Z,2.60
2022-09-12T23:05:28.487Z,2.03
2022-09-12T23:07:57.540Z,2.30
2022-09-12T23:10:27.546Z,2.60
2022-09-12T23:12:55.731Z,2.85
2022-09-12T23:15:23.640Z,2.53
2022-09-12T23:17:51.598Z,2.30
2022-09-12T23:20:19.489Z,2.33
2022-09-12T23:22:47.217Z,2.55
2022-09-12T23:25:16.313Z,2.75
2022-09-12T23:27:44.270Z,2.15
2022-09-12T23:30:13.023Z,2.20
2022-09-12T23:32:40.749Z,1.80
2022-09-12T23:35:08.870Z,2.30
2022-09-12T23:37:36.615Z,2.22
2022-09-12T23:40:05.976Z,2.50
2022-09-12T23:42:35.112Z,2.40
2022-09-12T23:45:02.847Z,2.75
2022-09-12T23:47:31.037Z,2.28
2022-09-12T23:49:58.773Z,2.50
2022-09-12T23:52:27.384Z,3.42
2022-09-12T23:54:55.135Z,2.15
2022-09-12T23:57:22.846Z,2.35
2022-09-12T23:59:51.986Z,2.95
